Time;durP1;ratioP1;P1;durP2;ratioP2;P2;SDS_P1;SDS_P2;PMS_P1;PMS_P2;Temp;Humidity;BMP_temperature;BMP_pressure;BME280_temperature;BME280_humidity;BME280_pressure;Samples;Min_cycle;Max_cycle;Signal;HPM_P1;HPM_P2
2024/01/25 00:00:10;;;;;;;2.83;2.42;;;;;;;;;;1047817;28;20020;-19
2024/01/25 00:00:40;;;;;;;5.57;3.55;;;;;;;;;;1047706;28;20060;-21
2024/01/25 00:01:11;;;;;;;3.80;3.50;;;;;;;;;;1048113;28;20107;-21
2024/01/25 00:01:41;;;;;;;5.10;4.68;;;;;;;;;;1047857;28;20410;-22
2024/01/25 00:02:12;;;;;;;10.05;4.88;;;;;;;;;;1047986;28;20069;-21
2024/01/25 00:02:42;;;;;;;10.45;5.30;;;;;;;;;;1047782;28;20052;-21
2024/01/25 00:03:13;;;;;;;5.65;5.10;;;;;;;;;;1048176;28;20099;-21
2024/01/25 00:03:43;;;;;;;5.55;5.15;;;;;;;;;;1047620;28;20025;-23
2024/01/25 00:04:14;;;;;;;8.38;7.57;;;;;;;;;;1047866;28;20036;-19
2024/01/25 00:04:44;;;;;;;7.15;4.88;;;;;;;;;;1047798;28;20636;-21
2024/01/25 00:05:15;;;;;;;8.18;4.18;;;;;;;;;;1047723;28;20016;-21
2024/01/25 00:05:45;;;;;;;9.55;4.35;;;;;;;;;;1047382;28;20464;-20
2024/01/25 00:06:15;;;;;;;8.05;6.55;;;;;;;;;;1047687;28;20025;-21
2024/01/25 00:06:46;;;;;;;4.80;3.35;;;;;;;;;;1047582;28;20462;-23
2024/01/25 00:07:17;;;;;;;10.68;6.65;;;;;;;;;;1048148;28;20739;-20
2024/01/25 00:07:50;;;;;;;8.02;4.00;;;;;;;;;;1047525;28;20016;-22
2024/01/25 00:08:21;;;;;;;4.30;3.97;;;;;;;;;;1047882;28;20074;-22
2024/01/25 00:08:51;;;;;;;4.90;4.35;;;;;;;;;;1046747;28;20028;-20
2024/01/25 00:09:22;;;;;;;8.68;7.95;;;;;;;;;;1046623;28;20115;-22
2024/01/25 00:09:52;;;;;;;13.32;5.25;;;;;;;;;;1047868;28;20020;-21
2024/01/25 00:10:22;;;;;;;12.63;7.43;;;;;;;;;;1047747;28;20024;-19
2024/01/25 00:10:53;;;;;;;14.75;9.68;;;;;;;;;;1047966;28;20020;-20
2024/01/25 00:11:24;;;;;;;9.77;5.68;;;;;;;;;;1047953;28;20105;-21
2024/01/25 00:11:54;;;;;;;13.70;7.32;;;;;;;;;;1047917;28;20024;-21
2024/01/25 00:12:24;;;;;;;10.18;5.18;;;;;;;;;;1047832;28;20031;-21
2024/01/25 00:12:55;;;;;;;12.90;5.43;;;;;;;;;;1047849;28;20056;-21
2024/01/25 00:13:25;;;;;;;10.20;5.55;;;;;;;;;;1047757;28;20223;-20
2024/01/25 00:13:56;;;;;;;10.43;6.95;;;;;;;;;;1047563;28;20031;-23
2024/01/25 00:14:26;;;;;;;3.78;3.47;;;;;;;;;;1047699;28;20423;-22
2024/01/25 00:14:56;;;;;;;4.65;4.35;;;;;;;;;;1047979;28;20026;-20
2024/01/25 00:15:27;;;;;;;9.90;6.07;;;;;;;;;;1047707;28;20028;-21
2024/01/25 00:15:57;;;;;;;6.80;6.05;;;;;;;;;;1047433;28;20023;-21
2024/01/25 00:16:28;;;;;;;2.90;2.70;;;;;;;;;;1047920;28;20029;-23
2024/01/25 00:16:58;;;;;;;4.90;4.63;;;;;;;;;;1047921;28;20104;-22
2024/01/25 00:17:29;;;;;;;6.97;3.53;;;;;;;;;;1047928;28;20029;-20
2024/01/25 00:17:59;;;;;;;4.47;4.15;;;;;;;;;;1047792;28;20023;-20
2024/01/25 00:18:29;;;;;;;5.70;4.68;;;;;;;;;;1047190;28;20059;-19
2024/01/25 00:19:00;;;;;;;3.35;3.08;;;;;;;;;;1047264;28;20103;-23
2024/01/25 00:19:30;;;;;;;6.05;4.25;;;;;;;;;;1047708;28;20468;-22
2024/01/25 00:20:01;;;;;;;2.90;2.75;;;;;;;;;;1047849;28;20107;-21
2024/01/25 00:20:31;;;;;;;2.22;2.13;;;;;;;;;;1047738;28;20032;-21
2024/01/25 00:21:02;;;;;;;3.38;2.78;;;;;;;;;;1047814;28;20459;-23
2024/01/25 00:21:32;;;;;;;4.43;4.13;;;;;;;;;;1047821;28;20017;-23
2024/01/25 00:22:03;;;;;;;10.40;9.50;;;;;;;;;;1047877;28;20017;-22
2024/01/25 00:22:33;;;;;;;7.60;6.97;;;;;;;;;;1047692;28;20079;-22
2024/01/25 00:23:04;;;;;;;3.50;3.30;;;;;;;;;;1047703;28;21273;-20
2024/01/25 00:23:34;;;;;;;6.07;4.32;;;;;;;;;;1047534;28;20641;-21
2024/01/25 00:24:05;;;;;;;7.65;4.47;;;;;;;;;;1047422;28;20021;-22
2024/01/25 00:24:36;;;;;;;12.68;5.15;;;;;;;;;;1047645;28;20047;-21
2024/01/25 00:25:07;;;;;;;9.43;4.50;;;;;;;;;;1047005;28;20475;-23
2024/01/25 00:25:37;;;;;;;4.80;3.35;;;;;;;;;;1046654;28;20028;-20
2024/01/25 00:26:08;;;;;;;5.75;4.93;;;;;;;;;;1047770;28;20900;-20
2024/01/25 00:26:38;;;;;;;4.53;4.15;;;;;;;;;;1047782;28;20066;-22
2024/01/25 00:27:09;;;;;;;2.65;2.53;;;;;;;;;;1048136;28;20052;-20
2024/01/25 00:27:39;;;;;;;5.57;3.30;;;;;;;;;;1047860;28;20024;-20
2024/01/25 00:28:10;;;;;;;4.38;3.95;;;;;;;;;;1047892;28;20028;-21
2024/01/25 00:28:40;;;;;;;4.78;4.32;;;;;;;;;;1047655;28;20119;-21
2024/01/25 00:29:10;;;;;;;5.60;3.08;;;;;;;;;;1047927;28;20025;-22
2024/01/25 00:29:41;;;;;;;6.28;5.68;;;;;;;;;;1047571;28;20029;-22
2024/01/25 00:30:12;;;;;;;3.58;3.30;;;;;;;;;;1047835;28;20060;-21
2024/01/25 00:30:42;;;;;;;9.07;4.82;;;;;;;;;;1047679;28;20060;-20
2024/01/25 00:31:13;;;;;;;5.93;5.40;;;;;;;;;;1048022;28;20024;-21
2024/01/25 00:31:43;;;;;;;6.45;5.38;;;;;;;;;;1047804;28;20472;-23
2024/01/25 00:32:13;;;;;;;5.15;4.70;;;;;;;;;;1047957;28;20027;-21
2024/01/25 00:32:44;;;;;;;7.35;6.75;;;;;;;;;;1047824;28;20055;-22
2024/01/25 00:33:14;;;;;;;8.50;3.67;;;;;;;;;;1048119;28;20071;-23
2024/01/25 00:33:45;;;;;;;3.30;3.03;;;;;;;;;;1047413;28;20028;-21
2024/01/25 00:34:15;;;;;;;2.45;2.33;;;;;;;;;;1047719;28;20028;-21
2024/01/25 00:34:46;;;;;;;4.43;4.00;;;;;;;;;;1047656;28;20029;-23
2024/01/25 00:35:16;;;;;;;1.95;1.85;;;;;;;;;;1047825;28;20017;-22
2024/01/25 00:35:48;;;;;;;5.07;4.63;;;;;;;;;;1047650;28;20062;-22
2024/01/25 00:36:18;;;;;;;3.30;3.10;;;;;;;;;;1047904;28;20111;-21
2024/01/25 00:36:49;;;;;;;2.50;2.30;;;;;;;;;;1047711;28;20016;-21
2024/01/25 00:37:19;;;;;;;6.38;5.32;;;;;;;;;;1047898;28;20029;-21
2024/01/25 00:37:50;;;;;;;6.40;3.17;;;;;;;;;;1047405;28;20028;-22
2024/01/25 00:38:20;;;;;;;3.72;3.53;;;;;;;;;;1047847;28;20040;-22
2024/01/25 00:38:51;;;;;;;4.93;4.55;;;;;;;;;;1047596;28;20490;-20
2024/01/25 00:39:22;;;;;;;6.20;5.75;;;;;;;;;;1046672;28;20067;-22
2024/01/25 00:39:53;;;;;;;3.90;3.60;;;;;;;;;;1046584;28;20107;-21
2024/01/25 00:40:23;;;;;;;1.42;1.40;;;;;;;;;;1047712;28;20375;-19
2024/01/25 00:40:54;;;;;;;4.65;4.25;;;;;;;;;;1047896;28;20027;-20
2024/01/25 00:41:24;;;;;;;2.92;2.75;;;;;;;;;;1047916;28;20056;-22
2024/01/25 00:41:59;;;;;;;2.70;2.50;;;;;;;;;;1047812;28;20063;-22
2024/01/25 00:42:30;;;;;;;3.92;3.47;;;;;;;;;;1047209;28;20025;-21
2024/01/25 00:43:00;;;;;;;4.43;3.03;;;;;;;;;;1046093;28;20013;-22
2024/01/25 00:43:31;;;;;;;3.33;3.13;;;;;;;;;;1047445;28;20035;-19
2024/01/25 00:44:02;;;;;;;4.82;3.63;;;;;;;;;;1047107;28;20060;-20
2024/01/25 00:44:33;;;;;;;8.63;5.70;;;;;;;;;;1046879;28;20021;-21
2024/01/25 00:45:04;;;;;;;7.63;3.55;;;;;;;;;;1047219;28;20124;-21
2024/01/25 00:45:35;;;;;;;2.70;2.20;;;;;;;;;;1047033;28;20555;-21
2024/01/25 00:46:06;;;;;;;2.72;2.53;;;;;;;;;;1047781;28;20439;-21
2024/01/25 00:46:37;;;;;;;8.80;4.72;;;;;;;;;;1046602;28;20071;-20
2024/01/25 00:47:08;;;;;;;3.33;2.33;;;;;;;;;;1047983;28;20024;-20
2024/01/25 00:47:39;;;;;;;5.65;4.97;;;;;;;;;;1047679;28;20025;-23
2024/01/25 00:48:09;;;;;;;19.15;6.68;;;;;;;;;;1047723;28;20029;-20
2024/01/25 00:48:40;;;;;;;41.95;16.77;;;;;;;;;;1046448;28;20012;-23
2024/01/25 00:49:10;;;;;;;19.33;9.57;;;;;;;;;;1047759;28;20050;-22
2024/01/25 00:49:41;;;;;;;19.58;9.80;;;;;;;;;;1047530;28;20035;-22
2024/01/25 00:50:12;;;;;;;14.77;8.40;;;;;;;;;;1047659;28;20060;-20
2024/01/25 00:50:42;;;;;;;27.05;14.32;;;;;;;;;;1047579;28;20476;-21
2024/01/25 00:51:14;;;;;;;29.35;14.52;;;;;;;;;;1047523;28;20021;-21
2024/01/25 00:51:47;;;;;;;42.97;15.50;;;;;;;;;;1047046;28;20063;-21
2024/01/25 00:52:17;;;;;;;45.63;13.57;;;;;;;;;;1047608;28;20031;-21
2024/01/25 00:52:48;;;;;;;19.10;7.38;;;;;;;;;;1047331;28;20390;-21
2024/01/25 00:53:18;;;;;;;56.85;19.35;;;;;;;;;;1047704;28;20032;-21
2024/01/25 00:53:49;;;;;;;59.08;21.35;;;;;;;;;;1046883;28;20016;-21
2024/01/25 00:54:19;;;;;;;47.10;23.23;;;;;;;;;;1047424;28;20790;-21
2024/01/25 00:54:50;;;;;;;54.55;24.70;;;;;;;;;;1047289;28;20025;-22
2024/01/25 00:55:20;;;;;;;45.08;22.70;;;;;;;;;;1047928;28;20063;-21
2024/01/25 00:55:51;;;;;;;55.97;26.52;;;;;;;;;;1046169;28;20111;-20
2024/01/25 00:56:22;;;;;;;42.00;26.60;;;;;;;;;;1047090;28;20388;-20
2024/01/25 00:56:52;;;;;;;24.15;11.40;;;;;;;;;;1047792;28;20124;-23
2024/01/25 00:57:23;;;;;;;24.50;11.48;;;;;;;;;;1047880;28;20107;-22
2024/01/25 00:57:54;;;;;;;22.13;10.20;;;;;;;;;;1047494;28;20118;-21
2024/01/25 00:58:25;;;;;;;26.02;13.13;;;;;;;;;;1047687;28;20024;-21
2024/01/25 00:58:55;;;;;;;12.98;6.32;;;;;;;;;;1047722;28;20047;-20
2024/01/25 00:59:26;;;;;;;5.15;3.70;;;;;;;;;;1047221;28;20106;-21
2024/01/25 00:59:56;;;;;;;8.30;6.60;;;;;;;;;;1047213;28;20028;-21
2024/01/25 01:00:27;;;;;;;12.50;7.95;;;;;;;;;;1047027;28;20024;-21
2024/01/25 01:00:58;;;;;;;21.92;5.68;;;;;;;;;;1047338;28;20532;-21
2024/01/25 01:01:28;;;;;;;8.45;7.38;;;;;;;;;;1046350;28;20528;-21
2024/01/25 01:02:00;;;;;;;5.82;3.55;;;;;;;;;;1047420;28;20109;-21
2024/01/25 01:02:32;;;;;;;8.55;6.72;;;;;;;;;;1047177;28;20085;-21
2024/01/25 01:03:04;;;;;;;16.38;7.55;;;;;;;;;;1047800;28;20024;-22
2024/01/25 01:03:35;;;;;;;7.63;6.20;;;;;;;;;;1047436;28;20452;-21
2024/01/25 01:04:05;;;;;;;7.22;5.93;;;;;;;;;;1047089;28;20055;-21
2024/01/25 01:04:37;;;;;;;30.10;7.18;;;;;;;;;;1047080;28;20024;-21
2024/01/25 01:05:07;;;;;;;6.32;5.75;;;;;;;;;;1046540;28;20391;-22
2024/01/25 01:05:38;;;;;;;8.07;6.15;;;;;;;;;;1047217;28;20028;-21
2024/01/25 01:06:09;;;;;;;17.00;7.88;;;;;;;;;;1047571;28;20020;-20
2024/01/25 01:06:40;;;;;;;9.48;6.50;;;;;;;;;;1047356;28;20090;-21
2024/01/25 01:07:11;;;;;;;5.90;5.40;;;;;;;;;;1047617;28;20177;-21
2024/01/25 01:07:42;;;;;;;3.30;3.10;;;;;;;;;;1047042;28;20475;-22
2024/01/25 01:08:12;;;;;;;20.90;10.35;;;;;;;;;;1047333;28;20471;-23
2024/01/25 01:08:43;;;;;;;4.78;4.45;;;;;;;;;;1047074;28;20028;-20
2024/01/25 01:09:14;;;;;;;20.08;7.28;;;;;;;;;;1047710;28;20465;-22
2024/01/25 01:09:44;;;;;;;9.27;7.00;;;;;;;;;;1047297;28;20020;-21
2024/01/25 01:10:15;;;;;;;5.82;5.32;;;;;;;;;;1047586;28;20077;-21
2024/01/25 01:10:46;;;;;;;2.85;2.65;;;;;;;;;;1047524;28;20098;-21
2024/01/25 01:11:17;;;;;;;7.47;4.35;;;;;;;;;;1047603;28;20035;-20
2024/01/25 01:11:47;;;;;;;7.38;5.88;;;;;;;;;;1047266;28;20012;-22
2024/01/25 01:12:18;;;;;;;5.07;4.35;;;;;;;;;;1047818;28;20044;-20
2024/01/25 01:12:48;;;;;;;13.05;8.02;;;;;;;;;;1047604;28;20070;-21
2024/01/25 01:13:19;;;;;;;7.97;7.03;;;;;;;;;;1047856;28;20028;-22
2024/01/25 01:13:49;;;;;;;4.88;4.47;;;;;;;;;;1047209;28;20572;-21
2024/01/25 01:14:19;;;;;;;22.98;4.22;;;;;;;;;;1046521;28;20510;-21
2024/01/25 01:14:50;;;;;;;5.20;4.70;;;;;;;;;;1047501;28;20024;-23
2024/01/25 01:15:20;;;;;;;9.70;5.07;;;;;;;;;;1047889;28;20454;-19
2024/01/25 01:15:51;;;;;;;8.00;6.47;;;;;;;;;;1046766;28;20120;-22
2024/01/25 01:16:21;;;;;;;3.58;2.70;;;;;;;;;;1047567;28;20027;-22
2024/01/25 01:16:52;;;;;;;2.50;2.33;;;;;;;;;;1047733;28;20369;-19
2024/01/25 01:17:22;;;;;;;2.25;2.15;;;;;;;;;;1047786;28;20028;-21
2024/01/25 01:17:52;;;;;;;9.27;3.15;;;;;;;;;;1047512;28;20422;-23
2024/01/25 01:18:23;;;;;;;6.95;5.18;;;;;;;;;;1047642;28;20465;-19
2024/01/25 01:18:53;;;;;;;2.78;2.60;;;;;;;;;;1047674;28;20419;-21
2024/01/25 01:19:24;;;;;;;5.70;5.20;;;;;;;;;;1047645;28;20032;-23
2024/01/25 01:19:54;;;;;;;6.72;3.20;;;;;;;;;;1047467;28;20029;-21
2024/01/25 01:20:25;;;;;;;3.65;3.42;;;;;;;;;;1047593;28;20035;-21
2024/01/25 01:20:55;;;;;;;5.90;5.30;;;;;;;;;;1047678;28;20029;-19
2024/01/25 01:21:26;;;;;;;1.58;1.48;;;;;;;;;;1047822;28;20035;-21
2024/01/25 01:21:56;;;;;;;15.85;7.88;;;;;;;;;;1047510;28;20521;-20
2024/01/25 01:22:27;;;;;;;4.68;3.78;;;;;;;;;;1047705;28;20082;-21
2024/01/25 01:22:57;;;;;;;5.38;4.93;;;;;;;;;;1046522;28;20233;-22
2024/01/25 01:23:27;;;;;;;3.90;2.78;;;;;;;;;;1046853;28;20027;-22
2024/01/25 01:23:58;;;;;;;4.80;4.45;;;;;;;;;;1046082;28;20028;-21
2024/01/25 01:24:28;;;;;;;3.95;3.53;;;;;;;;;;1046144;28;20115;-22
2024/01/25 01:24:59;;;;;;;20.10;7.22;;;;;;;;;;1046589;28;20038;-21
2024/01/25 01:25:29;;;;;;;8.63;7.72;;;;;;;;;;1046637;28;20025;-22
2024/01/25 01:26:00;;;;;;;9.05;7.97;;;;;;;;;;1045841;28;20028;-21
2024/01/25 01:26:30;;;;;;;5.13;4.63;;;;;;;;;;1047040;28;20024;-23
2024/01/25 01:27:01;;;;;;;10.40;9.32;;;;;;;;;;1046966;28;20020;-23
2024/01/25 01:27:31;;;;;;;9.68;5.28;;;;;;;;;;1045950;28;20016;-21
2024/01/25 01:28:02;;;;;;;8.75;5.45;;;;;;;;;;1046065;28;20074;-23
2024/01/25 01:28:32;;;;;;;5.80;5.28;;;;;;;;;;1045651;28;20617;-22
2024/01/25 01:29:03;;;;;;;11.60;7.25;;;;;;;;;;1046308;28;20028;-23
2024/01/25 01:29:33;;;;;;;8.18;7.47;;;;;;;;;;1046306;28;20024;-21
2024/01/25 01:30:04;;;;;;;8.55;4.85;;;;;;;;;;1046020;28;20079;-22
2024/01/25 01:30:35;;;;;;;8.95;5.80;;;;;;;;;;1046134;28;20024;-22
2024/01/25 01:31:05;;;;;;;13.95;6.78;;;;;;;;;;1044966;28;20060;-22
2024/01/25 01:31:35;;;;;;;6.32;5.68;;;;;;;;;;1046959;28;20048;-21
2024/01/25 01:32:06;;;;;;;5.50;4.97;;;;;;;;;;1045728;28;20029;-22
2024/01/25 01:32:36;;;;;;;5.90;5.47;;;;;;;;;;1046870;28;20024;-21
2024/01/25 01:33:10;;;;;;;9.23;8.32;;;;;;;;;;1045246;28;20471;-23
2024/01/25 01:33:40;;;;;;;5.40;5.00;;;;;;;;;;1046606;28;20074;-21
2024/01/25 01:34:12;;;;;;;9.65;5.60;;;;;;;;;;1045609;28;20064;-21
2024/01/25 01:34:43;;;;;;;8.65;4.57;;;;;;;;;;1046592;28;20063;-21
2024/01/25 01:35:13;;;;;;;9.82;5.95;;;;;;;;;;1046144;28;20029;-22
2024/01/25 01:35:43;;;;;;;12.75;6.25;;;;;;;;;;1045231;28;20501;-23
2024/01/25 01:36:14;;;;;;;10.95;8.32;;;;;;;;;;1044772;28;20396;-19
2024/01/25 01:36:44;;;;;;;2.95;2.65;;;;;;;;;;1045221;28;20453;-21
2024/01/25 01:37:15;;;;;;;8.82;4.65;;;;;;;;;;1044417;28;20071;-21
2024/01/25 01:37:45;;;;;;;6.80;3.05;;;;;;;;;;1045178;28;20024;-22
2024/01/25 01:38:15;;;;;;;7.72;4.25;;;;;;;;;;1046013;28;20039;-20
2024/01/25 01:38:46;;;;;;;5.43;5.00;;;;;;;;;;1046159;28;20027;-21
2024/01/25 01:39:16;;;;;;;6.85;5.95;;;;;;;;;;1046915;28;20035;-21
2024/01/25 01:39:47;;;;;;;6.13;5.72;;;;;;;;;;1046645;28;20025;-22
2024/01/25 01:40:17;;;;;;;5.95;3.70;;;;;;;;;;1045561;28;20058;-22
2024/01/25 01:40:48;;;;;;;5.50;4.18;;;;;;;;;;1046221;28;20069;-22
2024/01/25 01:41:18;;;;;;;2.53;2.42;;;;;;;;;;1047275;28;20031;-22
2024/01/25 01:41:49;;;;;;;7.25;5.68;;;;;;;;;;1047156;28;20463;-20
2024/01/25 01:42:19;;;;;;;2.35;1.33;;;;;;;;;;1047049;28;20431;-22
2024/01/25 01:42:50;;;;;;;3.45;3.15;;;;;;;;;;1046868;28;20024;-22
2024/01/25 01:43:23;;;;;;;8.93;5.95;;;;;;;;;;1046654;28;20020;-22
2024/01/25 01:43:53;;;;;;;9.68;8.68;;;;;;;;;;1045872;28;21048;-22
2024/01/25 01:44:24;;;;;;;11.63;8.35;;;;;;;;;;1046923;28;20021;-20
2024/01/25 01:44:54;;;;;;;3.55;3.25;;;;;;;;;;1047211;28;20024;-22
2024/01/25 01:45:25;;;;;;;5.05;3.83;;;;;;;;;;1046649;28;20021;-22
2024/01/25 01:45:59;;;;;;;4.65;3.47;;;;;;;;;;1047130;28;20376;-21
2024/01/25 01:46:29;;;;;;;3.85;3.45;;;;;;;;;;1045839;28;20027;-21
2024/01/25 01:47:00;;;;;;;5.22;4.72;;;;;;;;;;1045927;28;20566;-19
2024/01/25 01:47:31;;;;;;;7.60;5.57;;;;;;;;;;1046900;28;20107;-21
2024/01/25 01:48:01;;;;;;;12.77;7.63;;;;;;;;;;1047524;28;20120;-21
2024/01/25 01:48:32;;;;;;;2.97;2.75;;;;;;;;;;1047100;28;20039;-23
2024/01/25 01:49:03;;;;;;;16.52;6.38;;;;;;;;;;1047151;28;20605;-21
2024/01/25 01:49:34;;;;;;;7.13;6.53;;;;;;;;;;1047044;28;20020;-22
2024/01/25 01:50:05;;;;;;;14.32;6.82;;;;;;;;;;1047448;28;20020;-21
2024/01/25 01:50:36;;;;;;;24.58;6.30;;;;;;;;;;1046569;28;20511;-21
2024/01/25 01:51:07;;;;;;;13.70;8.10;;;;;;;;;;1047591;28;20013;-22
2024/01/25 01:51:38;;;;;;;21.17;10.38;;;;;;;;;;1046683;28;20484;-21
2024/01/25 01:52:09;;;;;;;13.32;10.25;;;;;;;;;;1046388;28;20454;-21
2024/01/25 01:52:39;;;;;;;11.70;5.80;;;;;;;;;;1047955;28;20225;-23
2024/01/25 01:53:10;;;;;;;16.20;6.10;;;;;;;;;;1048236;28;20028;-21
2024/01/25 01:53:41;;;;;;;5.03;4.50;;;;;;;;;;1047741;28;20054;-23
2024/01/25 01:54:11;;;;;;;18.88;6.85;;;;;;;;;;1047878;28;20086;-22
2024/01/25 01:54:42;;;;;;;9.15;8.20;;;;;;;;;;1048157;28;20024;-20
2024/01/25 01:55:12;;;;;;;8.32;7.47;;;;;;;;;;1048303;28;20031;-21
2024/01/25 01:55:43;;;;;;;12.88;6.55;;;;;;;;;;1047812;28;20468;-21
2024/01/25 01:56:14;;;;;;;17.48;7.68;;;;;;;;;;1048096;28;20425;-22
2024/01/25 01:56:45;;;;;;;5.78;4.28;;;;;;;;;;1048258;28;20028;-21
2024/01/25 01:57:15;;;;;;;20.50;9.35;;;;;;;;;;1047558;28;20033;-20
2024/01/25 01:57:46;;;;;;;10.00;8.90;;;;;;;;;;1047025;28;20024;-22
2024/01/25 01:58:18;;;;;;;13.25;6.10;;;;;;;;;;1048202;28;20029;-20
2024/01/25 01:58:48;;;;;;;5.50;5.05;;;;;;;;;;1048005;28;20028;-22
2024/01/25 01:59:20;;;;;;;9.10;7.60;;;;;;;;;;1047924;28;20035;-21
2024/01/25 01:59:51;;;;;;;6.93;5.18;;;;;;;;;;1047426;28;20024;-23
2024/01/25 02:00:22;;;;;;;15.15;7.95;;;;;;;;;;1047558;28;20016;-23
2024/01/25 02:00:53;;;;;;;13.48;6.30;;;;;;;;;;1047846;28;20114;-21
2024/01/25 02:01:24;;;;;;;12.63;9.18;;;;;;;;;;1047248;28;20031;-20
2024/01/25 02:01:54;;;;;;;9.40;8.27;;;;;;;;;;1047749;28;20097;-20
2024/01/25 02:02:25;;;;;;;10.25;8.30;;;;;;;;;;1047728;28;20028;-22
2024/01/25 02:02:57;;;;;;;11.90;7.75;;;;;;;;;;1048168;28;20071;-20
2024/01/25 02:03:28;;;;;;;9.35;7.00;;;;;;;;;;1047756;28;20032;-21
2024/01/25 02:03:58;;;;;;;14.27;6.32;;;;;;;;;;1047902;28;20024;-21
2024/01/25 02:04:29;;;;;;;38.35;6.53;;;;;;;;;;1047757;28;20502;-19
2024/01/25 02:04:59;;;;;;;8.30;6.00;;;;;;;;;;1047890;28;20024;-22
2024/01/25 02:05:30;;;;;;;6.18;3.80;;;;;;;;;;1047850;28;20024;-21
2024/01/25 02:06:02;;;;;;;5.20;4.70;;;;;;;;;;1047743;28;20499;-18
2024/01/25 02:06:33;;;;;;;7.15;6.57;;;;;;;;;;1047532;28;20024;-20
2024/01/25 02:07:04;;;;;;;15.35;6.25;;;;;;;;;;1048136;28;20058;-19
2024/01/25 02:07:34;;;;;;;13.75;5.53;;;;;;;;;;1046608;28;20439;-20
2024/01/25 02:08:05;;;;;;;8.38;5.20;;;;;;;;;;1047851;28;20111;-20
2024/01/25 02:08:36;;;;;;;25.58;8.70;;;;;;;;;;1047518;28;20544;-21
2024/01/25 02:09:06;;;;;;;18.92;7.63;;;;;;;;;;1047713;28;20052;-21
2024/01/25 02:09:37;;;;;;;6.90;5.75;;;;;;;;;;1047760;28;20777;-20
2024/01/25 02:10:08;;;;;;;11.63;6.75;;;;;;;;;;1046831;28;20048;-20
2024/01/25 02:10:39;;;;;;;5.85;5.00;;;;;;;;;;1046667;28;20025;-21
2024/01/25 02:11:12;;;;;;;29.52;9.05;;;;;;;;;;1047199;28;20012;-20
2024/01/25 02:11:43;;;;;;;11.30;6.65;;;;;;;;;;1047651;28;20396;-21
2024/01/25 02:12:19;;;;;;;21.23;11.95;;;;;;;;;;1047096;28;20020;-22
2024/01/25 02:12:50;;;;;;;20.25;5.88;;;;;;;;;;1047203;28;20046;-22
2024/01/25 02:13:21;;;;;;;19.55;10.50;;;;;;;;;;1047101;28;20432;-20
2024/01/25 02:13:51;;;;;;;4.43;4.03;;;;;;;;;;1047183;28;20365;-19
2024/01/25 02:14:22;;;;;;;6.88;5.60;;;;;;;;;;1040226;28;20031;-22
2024/01/25 02:14:53;;;;;;;15.93;11.18;;;;;;;;;;1040586;28;20024;-21
2024/01/25 02:15:23;;;;;;;27.05;8.80;;;;;;;;;;1042488;28;20508;-21
2024/01/25 02:15:54;;;;;;;7.38;4.95;;;;;;;;;;1045356;28;20021;-21
2024/01/25 02:16:24;;;;;;;24.80;9.75;;;;;;;;;;1045594;28;20021;-21
2024/01/25 02:16:55;;;;;;;10.63;9.63;;;;;;;;;;1047287;28;20043;-19
2024/01/25 02:17:25;;;;;;;23.42;8.63;;;;;;;;;;1046254;28;20029;-22
2024/01/25 02:17:56;;;;;;;50.22;14.95;;;;;;;;;;1045756;28;20021;-21
2024/01/25 02:18:26;;;;;;;15.55;8.73;;;;;;;;;;1046054;28;20468;-20
2024/01/25 02:18:57;;;;;;;15.85;10.52;;;;;;;;;;1047580;28;20035;-22
2024/01/25 02:19:28;;;;;;;20.63;7.35;;;;;;;;;;1047471;28;20109;-22
2024/01/25 02:19:58;;;;;;;15.75;8.00;;;;;;;;;;1047826;28;20079;-23
2024/01/25 02:20:28;;;;;;;25.92;10.00;;;;;;;;;;1046770;28;20036;-21
2024/01/25 02:20:59;;;;;;;7.32;6.65;;;;;;;;;;1047488;28;20029;-20
2024/01/25 02:21:29;;;;;;;10.43;6.38;;;;;;;;;;1047378;28;20031;-21
2024/01/25 02:22:01;;;;;;;21.83;13.52;;;;;;;;;;1047084;28;20108;-22
2024/01/25 02:22:32;;;;;;;14.13;10.98;;;;;;;;;;1047072;28;20127;-21
2024/01/25 02:23:03;;;;;;;11.32;7.30;;;;;;;;;;1047243;28;20136;-23
2024/01/25 02:23:33;;;;;;;35.08;10.68;;;;;;;;;;1047396;28;20032;-22
2024/01/25 02:24:04;;;;;;;18.90;13.07;;;;;;;;;;1047052;28;20020;-21
2024/01/25 02:24:34;;;;;;;7.80;6.43;;;;;;;;;;1046639;28;20502;-22
2024/01/25 02:25:05;;;;;;;16.35;9.48;;;;;;;;;;1047589;28;20028;-21
2024/01/25 02:25:35;;;;;;;18.98;6.82;;;;;;;;;;1045864;28;20024;-21
2024/01/25 02:26:06;;;;;;;21.13;10.63;;;;;;;;;;1046727;28;20024;-21
2024/01/25 02:26:36;;;;;;;35.70;11.52;;;;;;;;;;1047157;28;20545;-21
2024/01/25 02:27:07;;;;;;;39.63;11.60;;;;;;;;;;1046195;28;20024;-19
2024/01/25 02:27:38;;;;;;;15.05;11.15;;;;;;;;;;1046910;28;20029;-22
2024/01/25 02:28:09;;;;;;;15.93;10.10;;;;;;;;;;1048183;28;20138;-21
2024/01/25 02:28:39;;;;;;;7.68;7.03;;;;;;;;;;1047414;28;20123;-21
2024/01/25 02:29:09;;;;;;;8.98;6.40;;;;;;;;;;1047989;28;20059;-21
2024/01/25 02:29:40;;;;;;;13.75;6.30;;;;;;;;;;1047204;28;20029;-20
2024/01/25 02:30:10;;;;;;;8.63;6.88;;;;;;;;;;1047798;28;20414;-21
2024/01/25 02:30:41;;;;;;;9.77;6.90;;;;;;;;;;1045627;28;20036;-21
2024/01/25 02:31:11;;;;;;;25.25;7.15;;;;;;;;;;1046706;28;20013;-20
2024/01/25 02:31:42;;;;;;;11.85;6.85;;;;;;;;;;1046521;28;20032;-21
2024/01/25 02:32:12;;;;;;;14.57;9.35;;;;;;;;;;1046422;28;20032;-20
2024/01/25 02:32:43;;;;;;;16.30;6.57;;;;;;;;;;1047031;28;20051;-20
2024/01/25 02:33:14;;;;;;;16.80;7.47;;;;;;;;;;1047497;28;20027;-20
2024/01/25 02:33:44;;;;;;;16.55;7.70;;;;;;;;;;1046134;28;20031;-20
2024/01/25 02:34:15;;;;;;;10.57;5.18;;;;;;;;;;1046405;28;20029;-20
2024/01/25 02:34:45;;;;;;;14.35;10.95;;;;;;;;;;1047608;28;20111;-22
2024/01/25 02:35:16;;;;;;;22.38;12.05;;;;;;;;;;1048827;28;20036;-21
2024/01/25 02:35:46;;;;;;;28.35;11.13;;;;;;;;;;1045479;28;20062;-21
2024/01/25 02:36:17;;;;;;;10.43;8.60;;;;;;;;;;1045529;28;20028;-20
2024/01/25 02:36:47;;;;;;;13.55;8.07;;;;;;;;;;1046901;28;20407;-19
2024/01/25 02:37:18;;;;;;;28.15;7.47;;;;;;;;;;1046109;28;20024;-19
2024/01/25 02:37:50;;;;;;;11.35;8.85;;;;;;;;;;1042250;28;20352;-20
2024/01/25 02:38:20;;;;;;;8.63;5.75;;;;;;;;;;1045511;28;20035;-21
2024/01/25 02:38:51;;;;;;;12.90;10.25;;;;;;;;;;1045970;28;20123;-20
2024/01/25 02:39:21;;;;;;;17.15;11.18;;;;;;;;;;1044954;28;20025;-21
2024/01/25 02:39:52;;;;;;;26.20;9.13;;;;;;;;;;1044993;28;20070;-20
2024/01/25 02:40:23;;;;;;;34.25;13.35;;;;;;;;;;1044555;28;20025;-21
2024/01/25 02:40:53;;;;;;;16.58;8.90;;;;;;;;;;1047753;28;20475;-20
2024/01/25 02:41:24;;;;;;;25.02;7.95;;;;;;;;;;1047425;28;20676;-22
2024/01/25 02:41:54;;;;;;;11.95;6.20;;;;;;;;;;1043591;28;20496;-20
2024/01/25 02:42:25;;;;;;;10.80;7.75;;;;;;;;;;1045642;28;20387;-20
2024/01/25 02:42:56;;;;;;;12.07;9.40;;;;;;;;;;1046990;28;20580;-21
2024/01/25 02:43:26;;;;;;;21.10;7.70;;;;;;;;;;1046811;28;20380;-20
2024/01/25 02:43:57;;;;;;;20.35;10.32;;;;;;;;;;1046999;28;20105;-20
2024/01/25 02:44:28;;;;;;;9.40;8.35;;;;;;;;;;1045915;28;20059;-19
2024/01/25 02:44:58;;;;;;;14.40;8.13;;;;;;;;;;1044798;28;20043;-20
2024/01/25 02:45:29;;;;;;;26.58;9.57;;;;;;;;;;1045423;28;20025;-21
2024/01/25 02:45:59;;;;;;;11.38;9.60;;;;;;;;;;1043200;28;20070;-22
2024/01/25 02:46:30;;;;;;;13.52;9.38;;;;;;;;;;1045497;28;20020;-21
2024/01/25 02:47:01;;;;;;;7.90;5.40;;;;;;;;;;1046303;28;20021;-21
2024/01/25 02:47:31;;;;;;;11.15;5.65;;;;;;;;;;1046740;28;20539;-21
2024/01/25 02:48:03;;;;;;;6.78;6.28;;;;;;;;;;1046739;28;20032;-21
2024/01/25 02:48:34;;;;;;;6.25;5.63;;;;;;;;;;1046254;28;20040;-22
2024/01/25 02:49:05;;;;;;;18.08;7.75;;;;;;;;;;1046255;28;20598;-22
2024/01/25 02:49:35;;;;;;;14.30;6.88;;;;;;;;;;1045920;28;20016;-20
2024/01/25 02:50:06;;;;;;;25.95;9.00;;;;;;;;;;1045868;28;20111;-23
2024/01/25 02:50:37;;;;;;;13.48;8.77;;;;;;;;;;1047361;28;20021;-22
2024/01/25 02:51:07;;;;;;;19.60;9.15;;;;;;;;;;1046477;28;20035;-22
2024/01/25 02:51:37;;;;;;;10.40;8.80;;;;;;;;;;1047105;28;20448;-22
2024/01/25 02:52:08;;;;;;;28.17;11.70;;;;;;;;;;1046102;28;20032;-21
2024/01/25 02:52:38;;;;;;;15.60;5.45;;;;;;;;;;1045760;28;20016;-21
2024/01/25 02:53:09;;;;;;;6.15;2.72;;;;;;;;;;1046686;28;20024;-22
2024/01/25 02:53:39;;;;;;;10.18;6.70;;;;;;;;;;1045447;28;20016;-22
2024/01/25 02:54:10;;;;;;;7.95;7.15;;;;;;;;;;1043413;28;20028;-22
2024/01/25 02:54:40;;;;;;;13.82;8.23;;;;;;;;;;1046143;28;20058;-20
2024/01/25 02:55:11;;;;;;;20.67;6.07;;;;;;;;;;1046576;28;20536;-21
2024/01/25 02:55:41;;;;;;;18.42;11.40;;;;;;;;;;1044680;28;20123;-20
2024/01/25 02:56:11;;;;;;;25.00;8.60;;;;;;;;;;1044444;28;20115;-23
2024/01/25 02:56:43;;;;;;;7.65;6.13;;;;;;;;;;1042058;28;20028;-23
2024/01/25 02:57:13;;;;;;;29.42;10.00;;;;;;;;;;1045320;28;20071;-21
2024/01/25 02:57:44;;;;;;;8.70;7.35;;;;;;;;;;1044886;28;20729;-22
2024/01/25 02:58:14;;;;;;;10.20;9.15;;;;;;;;;;1042962;28;20190;-22
2024/01/25 02:58:45;;;;;;;15.05;7.35;;;;;;;;;;1045825;28;20072;-22
2024/01/25 02:59:17;;;;;;;22.67;11.38;;;;;;;;;;1043867;28;20037;-19
2024/01/25 02:59:48;;;;;;;10.25;6.22;;;;;;;;;;1043879;28;20033;-21
2024/01/25 03:00:18;;;;;;;12.07;5.22;;;;;;;;;;1044801;28;20031;-22
2024/01/25 03:00:49;;;;;;;11.23;7.38;;;;;;;;;;1046046;28;20035;-20
2024/01/25 03:01:20;;;;;;;7.13;4.75;;;;;;;;;;1044171;28;20275;-20
2024/01/25 03:01:51;;;;;;;22.17;10.00;;;;;;;;;;1042252;28;20071;-20
2024/01/25 03:02:22;;;;;;;13.82;9.30;;;;;;;;;;1043182;28;20040;-22